Time;durP1;ratioP1;P1;durP2;ratioP2;P2;SDS_P1;SDS_P2;PMS_P1;PMS_P2;Temp;Humidity;BMP_temperature;BMP_pressure;BME280_temperature;BME280_humidity;BME280_pressure;Samples;Min_cycle;Max_cycle;Signal;HPM_P1;HPM_P2
2021/11/12 03:18:14;;;;;;;;;;;;;;;9.63;100.00;99522.78;5027365;28;20465;-67
2021/11/12 06:06:01;;;;;;;;;;;;;;;7.56;100.00;99382.44;5009793;28;19972;-67
2021/11/12 06:08:27;;;;;;;;;;;;;;;7.74;100.00;99389.88;5022176;28;19921;-67
2021/11/12 06:10:56;;;;;;;;;;;;;;;7.89;100.00;99383.69;5028926;28;19924;-67
2021/11/12 06:13:30;;;;;;;;;;;;;;;7.79;100.00;99376.97;5028625;28;20347;-67
2021/11/12 06:15:56;;;;;;;;;;;;;;;7.54;100.00;99369.63;5028906;28;19917;-67
2021/11/12 06:18:21;;;;;;;;;;;;;;;6.95;100.00;99361.00;5034685;28;19960;-67
2021/11/12 06:23:57;;;;;;;;;;;;;;;7.18;100.00;99368.41;5026382;28;19988;-67
2021/11/12 06:26:24;;;;;;;;;;;;;;;7.45;100.00;99372.31;5038476;28;20008;-67
2021/11/12 06:28:50;;;;;;;;;;;;;;;7.59;100.00;99358.47;5013482;28;19920;-67
2021/11/12 06:31:22;;;;;;;;;;;;;;;7.42;100.00;99359.56;5029162;28;19913;-67
2021/11/12 06:33:58;;;;;;;;;;;;;;;7.40;100.00;99361.31;5029997;28;19913;-67
2021/11/12 06:36:55;;;;;;;;;;;;;;;7.24;100.00;99362.38;5028136;28;20426;-67
2021/11/12 06:39:21;;;;;;;;;;;;;;;7.29;100.00;99356.31;5025537;28;20392;-67
2021/11/12 06:52:35;;;;;;;;;;;;;;;7.05;100.00;99361.75;5019678;28;19952;-68
2021/11/12 06:55:05;;;;;;;;;;;;;;;7.30;100.00;99346.94;5007292;28;19914;-68
2021/11/12 06:57:32;;;;;;;;;;;;;;;7.16;100.00;99338.56;5002462;28;19967;-68
2021/11/12 06:59:57;;;;;;;;;;;;;;;7.06;100.00;99322.47;5020699;28;19917;-68
2021/11/12 07:02:30;;;;;;;;;;;;;;;6.78;100.00;99329.63;5019817;28;19914;-68
2021/11/12 07:04:58;;;;;;;;;;;;;;;6.52;100.00;99320.50;5021155;28;19924;-68
2021/11/12 07:07:28;;;;;;;;;;;;;;;6.39;100.00;99318.97;5019401;28;19924;-68
2021/11/12 07:09:55;;;;;;;;;;;;;;;6.43;100.00;99320.59;5020841;28;20266;-68
2021/11/12 07:12:31;;;;;;;;;;;;;;;6.31;100.00;99325.84;5020246;28;19952;-68
2021/11/12 07:14:57;;;;;;;;;;;;;;;6.38;100.00;99327.47;5020947;28;19968;-67
2021/11/12 07:17:27;;;;;;;;;;;;;;;6.25;100.00;99322.50;5016410;28;20398;-67
2021/11/12 07:19:55;;;;;;;;;;;;;;;6.34;100.00;99315.59;5016767;28;19952;-68
2021/11/12 07:22:46;;;;;;;;;;;;;;;6.50;100.00;99309.47;5019047;28;19921;-68
2021/11/12 07:25:20;;;;;;;;;;;;;;;6.59;100.00;99304.25;5018622;28;19917;-68
2021/11/12 07:28:08;;;;;;;;;;;;;;;6.56;100.00;99306.81;5008268;28;19964;-68
2021/11/12 07:30:38;;;;;;;;;;;;;;;6.34;100.00;99300.22;5012655;28;19921;-68
2021/11/12 07:33:04;;;;;;;;;;;;;;;6.24;100.00;99290.09;5020207;28;20479;-68
2021/11/12 07:35:35;;;;;;;;;;;;;;;6.24;100.00;99290.09;5020026;28;19923;-68
2021/11/12 07:38:12;;;;;;;;;;;;;;;6.38;100.00;99286.56;5020061;28;19917;-68
2021/11/12 07:48:50;;;;;;;;;;;;;;;6.85;100.00;99285.19;5020119;28;19924;-67
2021/11/12 07:51:17;;;;;;;;;;;;;;;6.91;100.00;99283.41;5017720;28;20479;-68
2021/11/12 07:54:09;;;;;;;;;;;;;;;6.97;100.00;99273.94;4999982;28;19924;-68
2021/11/12 07:56:35;;;;;;;;;;;;;;;7.25;100.00;99271.84;5012674;28;19960;-68
2021/11/12 07:59:10;;;;;;;;;;;;;;;7.88;100.00;99252.94;5019299;28;19962;-67
2021/11/12 08:01:36;;;;;;;;;;;;;;;8.32;100.00;99252.13;5017995;28;20004;-68
2021/11/12 08:04:06;;;;;;;;;;;;;;;7.16;100.00;99251.47;5016901;28;20004;-68
2021/11/12 08:06:34;;;;;;;;;;;;;;;7.61;100.00;99249.94;5015387;28;19925;-68
2021/11/12 08:09:48;;;;;;;;;;;;;;;7.07;100.00;99249.88;5003163;28;19937;-68
2021/11/12 08:12:20;;;;;;;;;;;;;;;7.71;100.00;99242.97;5015298;28;19913;-67
2021/11/12 08:22:53;;;;;;;;;;;;;;;8.46;100.00;99217.69;5015889;28;19947;-68
2021/11/12 08:41:28;;;;;;;;;;;;;;;8.46;100.00;99174.03;5016709;28;19932;-68
2021/11/12 08:43:54;;;;;;;;;;;;;;;9.19;100.00;99169.88;5010010;28;19990;-67
2021/11/12 08:46:35;;;;;;;;;;;;;;;9.52;100.00;99169.09;4998388;28;19960;-68
2021/11/12 08:49:13;;;;;;;;;;;;;;;9.49;100.00;99169.13;5013020;28;19921;-68
2021/11/12 08:51:41;;;;;;;;;;;;;;;9.37;100.00;99166.03;5017802;28;20406;-68
2021/11/12 08:57:15;;;;;;;;;;;;;;;9.86;100.00;99153.63;5015899;28;19963;-67
2021/11/12 08:59:57;;;;;;;;;;;;;;;9.53;100.00;99152.75;5013893;28;20212;-68
2021/11/12 09:02:28;;;;;;;;;;;;;;;9.84;100.00;99161.38;5017435;28;19971;-68
2021/11/12 09:04:53;;;;;;;;;;;;;;;9.46;100.00;99154.63;4999133;28;19909;-68
2021/11/12 09:07:19;;;;;;;;;;;;;;;9.59;100.00;99156.03;5016782;28;20347;-68
2021/11/12 09:09:50;;;;;;;;;;;;;;;9.54;100.00;99139.88;5000005;28;19964;-67
2021/11/12 09:12:21;;;;;;;;;;;;;;;8.95;100.00;99152.44;5016758;28;19917;-67
2021/11/12 09:14:48;;;;;;;;;;;;;;;9.76;100.00;99162.44;5017080;28;19924;-68
2021/11/12 09:17:15;;;;;;;;;;;;;;;9.53;100.00;99171.59;5016563;28;19920;-68
2021/11/12 09:20:00;;;;;;;;;;;;;;;8.34;100.00;99193.91;5016846;28;19928;-68
2021/11/12 09:28:37;;;;;;;;;;;;;;;10.40;100.00;99163.31;5017286;28;20036;-68
2021/11/12 10:04:38;;;;;;;;;;;;;;;8.97;100.00;99178.94;5028473;28;19967;-67
2021/11/12 10:07:12;;;;;;;;;;;;;;;8.86;100.00;99183.47;5028434;28;19924;-65
2021/11/12 10:09:38;;;;;;;;;;;;;;;9.15;100.00;99183.66;5030026;28;20418;-67
2021/11/12 10:12:06;;;;;;;;;;;;;;;9.21;100.00;99183.53;5029852;28;19924;-67
2021/11/12 10:15:03;;;;;;;;;;;;;;;9.54;100.00;99177.59;5029553;28;20410;-67
2021/11/12 10:17:30;;;;;;;;;;;;;;;9.62;100.00;99176.53;5029878;28;19920;-67
2021/11/12 10:20:03;;;;;;;;;;;;;;;9.56;100.00;99174.13;5027954;28;19920;-67
2021/11/12 10:22:30;;;;;;;;;;;;;;;9.19;100.00;99177.59;5010603;28;20031;-63
2021/11/12 10:25:08;;;;;;;;;;;;;;;9.18;100.00;99172.47;5032003;28;20013;-67
2021/11/12 10:27:35;;;;;;;;;;;;;;;9.21;100.00;99177.53;5013398;28;19924;-67
2021/11/12 10:30:03;;;;;;;;;;;;;;;9.09;100.00;99180.38;5013336;28;19967;-67
2021/11/12 10:32:35;;;;;;;;;;;;;;;9.03;100.00;99183.94;5005731;28;19924;-67
2021/11/12 10:35:09;;;;;;;;;;;;;;;9.25;100.00;99180.88;5005813;28;20338;-67
2021/11/12 10:37:39;;;;;;;;;;;;;;;9.40;100.00;99170.25;5012659;28;19913;-67
2021/11/12 10:40:06;;;;;;;;;;;;;;;9.51;100.00;99167.38;5008995;28;19913;-67
2021/11/12 10:42:33;;;;;;;;;;;;;;;9.43;100.00;99157.28;5034833;28;19948;-67
2021/11/12 10:45:00;;;;;;;;;;;;;;;9.24;100.00;99153.47;5032189;28;19924;-67
2021/11/12 10:47:26;;;;;;;;;;;;;;;9.65;100.00;99144.75;5014865;28;19920;-67
2021/11/12 10:49:52;;;;;;;;;;;;;;;10.95;100.00;99147.94;5032431;28;19921;-67
2021/11/12 10:52:20;;;;;;;;;;;;;;;10.35;100.00;99136.84;5014239;28;19949;-67
2021/11/12 10:57:14;;;;;;;;;;;;;;;11.39;100.00;99119.06;5032358;28;19939;-67
2021/11/12 11:00:03;;;;;;;;;;;;;;;10.72;100.00;99116.88;5031821;28;19986;-67
2021/11/12 11:02:29;;;;;;;;;;;;;;;10.87;100.00;99117.25;5032173;28;19913;-67
2021/11/12 11:08:42;;;;;;;;;;;;;;;9.45;100.00;99123.84;5031316;28;19944;-68
2021/11/12 11:11:24;;;;;;;;;;;;;;;9.07;100.00;99136.75;4959580;28;19918;-67
2021/11/12 11:13:52;;;;;;;;;;;;;;;9.08;100.00;99138.44;5013394;28;19913;-67
2021/11/12 11:16:19;;;;;;;;;;;;;;;9.03;100.00;99147.97;5031348;28;20562;-66
2021/11/12 11:18:52;;;;;;;;;;;;;;;9.34;100.00;99144.69;5014218;28;19952;-67
2021/11/12 11:24:21;;;;;;;;;;;;;;;10.18;100.00;99127.00;5012244;28;19944;-68
2021/11/12 11:29:56;;;;;;;;;;;;;;;12.77;100.00;99111.47;5019053;28;21050;-65
2021/11/12 11:32:26;;;;;;;;;;;;;;;12.38;100.00;99106.09;5018310;28;19917;-65
2021/11/12 11:34:52;;;;;;;;;;;;;;;11.27;100.00;99100.50;5019743;28;20717;-65
2021/11/12 11:37:23;;;;;;;;;;;;;;;10.54;100.00;99090.81;5003440;28;19917;-65
2021/11/12 11:39:50;;;;;;;;;;;;;;;10.07;100.00;99094.75;5021487;28;19919;-65
2021/11/12 11:45:21;;;;;;;;;;;;;;;12.18;100.00;99094.78;4940415;29;19922;-65
2021/11/12 11:57:01;;;;;;;;;;;;;;;13.12;100.00;99073.06;4939635;29;19965;-65
2021/11/12 11:59:35;;;;;;;;;;;;;;;13.22;100.00;99060.56;4940322;28;19948;-65
2021/11/12 12:02:21;;;;;;;;;;;;;;;12.91;100.00;99061.84;4939848;29;19973;-65
2021/11/12 12:05:17;;;;;;;;;;;;;;;12.91;100.00;99061.84;4924181;29;20341;-65
2021/11/12 12:08:05;;;;;;;;;;;;;;;13.10;100.00;99043.81;4939281;28;19973;-65
2021/11/12 12:10:46;;;;;;;;;;;;;;;13.12;100.00;99042.03;4939532;29;19929;-65
2021/11/12 12:13:28;;;;;;;;;;;;;;;13.41;100.00;99037.38;4939138;29;20469;-65
2021/11/12 12:16:18;;;;;;;;;;;;;;;13.30;100.00;99033.50;4937999;29;20013;-65
2021/11/12 12:19:06;;;;;;;;;;;;;;;13.27;100.00;99018.06;4940538;28;19997;-65
2021/11/12 12:22:08;;;;;;;;;;;;;;;13.22;100.00;99019.19;4960435;28;19917;-65
2021/11/12 13:30:12;;;;;;;;;;;;;;;12.94;100.00;98904.88;5020336;28;20040;-67
2021/11/12 13:33:14;;;;;;;;;;;;;;;12.81;100.00;98901.13;4995544;28;19997;-67
2021/11/12 13:57:38;;;;;;;;;;;;;;;11.21;100.00;98914.28;4938374;29;19962;-64
2021/11/12 14:06:58;;;;;;;;;;;;;;;12.39;100.00;98896.88;4933467;29;19930;-64
2021/11/12 14:22:54;;;;;;;;;;;;;;;12.24;100.00;98879.41;4913622;29;19983;-64
2021/11/12 14:28:51;;;;;;;;;;;;;;;11.90;100.00;98865.28;4907561;29;20074;-65
2021/11/12 14:37:25;;;;;;;;;;;;;;;12.83;100.00;98863.13;4914739;29;20126;-64
2021/11/12 14:57:48;;;;;;;;;;;;;;;12.79;100.00;98846.09;4904753;29;19973;-62
2021/11/12 15:00:16;;;;;;;;;;;;;;;12.70;100.00;98841.31;4949018;28;19928;-64
2021/11/12 15:05:44;;;;;;;;;;;;;;;12.60;100.00;98846.03;4948570;28;20066;-64
2021/11/12 15:08:18;;;;;;;;;;;;;;;12.45;100.00;98838.94;4946648;28;19922;-64
2021/11/12 15:10:44;;;;;;;;;;;;;;;12.46;100.00;98838.88;4917735;28;19919;-64
2021/11/12 15:13:09;;;;;;;;;;;;;;;12.38;100.00;98832.34;4949243;28;19930;-64
2021/11/12 15:15:35;;;;;;;;;;;;;;;11.38;100.00;98832.00;4944805;28;20794;-64
2021/11/12 15:30:37;;;;;;;;;;;;;;;10.98;100.00;98818.00;5025901;28;20015;-65
2021/11/12 15:33:05;;;;;;;;;;;;;;;12.02;100.00;98807.16;5026713;28;19917;-65
2021/11/12 15:35:33;;;;;;;;;;;;;;;11.83;100.00;98807.03;5026030;28;19921;-65
2021/11/12 15:38:13;;;;;;;;;;;;;;;11.45;100.00;98804.25;5026155;28;20023;-64
2021/11/12 15:40:46;;;;;;;;;;;;;;;11.70;100.00;98799.81;5028150;28;19947;-63
2021/11/12 15:46:24;;;;;;;;;;;;;;;10.83;100.00;98803.09;5024496;28;19929;-65
2021/11/12 15:48:33;;;;;;;;;;;;;;;11.06;100.00;98790.25;4926230;28;19999;-65
2021/11/12 15:54:13;;;;;;;;;;;;;;;10.97;100.00;98794.88;5024549;28;19924;-65
2021/11/12 15:57:11;;;;;;;;;;;;;;;10.76;100.00;98793.91;5009226;28;20376;-65
2021/11/12 16:13:23;;;;;;;;;;;;;;;11.00;100.00;98799.94;4966275;28;20052;-65
2021/11/12 16:26:45;;;;;;;;;;;;;;;10.46;100.00;98782.06;4957824;28;19929;-69
2021/11/12 16:32:28;;;;;;;;;;;;;;;10.13;100.00;98780.66;4960803;28;19929;-68
2021/11/12 16:35:04;;;;;;;;;;;;;;;10.36;100.00;98780.72;4958748;28;19941;-68
2021/11/12 16:37:32;;;;;;;;;;;;;;;10.17;100.00;98779.63;4944100;28;19976;-67
2021/11/12 16:40:07;;;;;;;;;;;;;;;10.14;100.00;98782.31;4951273;28;19921;-67
2021/11/12 16:56:56;;;;;;;;;;;;;;;9.86;100.00;98787.53;4996945;28;19979;-67
2021/11/12 17:00:04;;;;;;;;;;;;;;;10.05;100.00;98774.00;5013038;28;19921;-67
2021/11/12 17:15:45;;;;;;;;;;;;;;;9.76;100.00;98746.69;5015472;28;19956;-69
2021/11/12 17:45:46;;;;;;;;;;;;;;;9.90;100.00;98728.25;5005327;28;19920;-64
2021/11/12 17:48:10;;;;;;;;;;;;;;;9.64;100.00;98724.78;5781134;22;19935;-68
2021/11/12 18:04:21;;;;;;;;;;;;;;;9.60;100.00;98720.66;5010725;28;19975;-68
2021/11/12 18:06:53;;;;;;;;;;;;;;;9.70;100.00;98720.34;5024014;28;19975;-68
2021/11/12 22:09:25;;;;;;;;;;;;;;;9.09;100.00;98635.78;4998978;28;19956;-65
2021/11/12 22:11:50;;;;;;;;;;;;;;;9.21;100.00;98631.09;5005713;28;20431;-65
2021/11/12 22:14:17;;;;;;;;;;;;;;;9.14;100.00;98623.63;4987285;28;19925;-65
2021/11/12 22:16:42;;;;;;;;;;;;;;;9.09;100.00;98622.94;4969280;28;20425;-64
2021/11/12 22:19:08;;;;;;;;;;;;;;;9.19;100.00;98622.59;5002696;28;19913;-65
2021/11/12 22:21:34;;;;;;;;;;;;;;;9.21;100.00;98619.97;5001470;28;20028;-65
2021/11/12 22:24:02;;;;;;;;;;;;;;;9.21;100.00;98623.41;5002822;28;19918;-65
2021/11/12 22:26:28;;;;;;;;;;;;;;;9.18;100.00;98620.91;4981945;28;19964;-65
2021/11/12 22:29:15;;;;;;;;;;;;;;;9.07;100.00;98617.00;4980894;28;20162;-64
2021/11/12 22:31:42;;;;;;;;;;;;;;;9.34;100.00;98605.00;4987802;28;19933;-65
2021/11/12 22:34:07;;;;;;;;;;;;;;;9.49;100.00;98608.75;5003197;28;19917;-65
2021/11/12 22:36:33;;;;;;;;;;;;;;;9.41;100.00;98612.44;5007065;28;20892;-65
2021/11/12 22:39:03;;;;;;;;;;;;;;;9.35;100.00;98609.22;5011084;28;19917;-68
2021/11/12 22:41:28;;;;;;;;;;;;;;;9.59;100.00;98626.41;5003827;28;20005;-68
2021/11/12 22:44:00;;;;;;;;;;;;;;;9.38;100.00;98630.53;5001899;28;20596;-67
2021/11/12 22:46:27;;;;;;;;;;;;;;;9.68;100.00;98632.13;5004174;28;19929;-68
2021/11/12 22:48:53;;;;;;;;;;;;;;;9.79;100.00;98632.59;5000001;28;19917;-68
2021/11/12 22:51:18;;;;;;;;;;;;;;;9.11;100.00;98644.28;4985942;28;19918;-68
2021/11/12 22:59:21;;;;;;;;;;;;;;;9.37;100.00;98640.84;5031689;28;20576;-68
2021/11/12 23:01:48;;;;;;;;;;;;;;;9.06;100.00;98630.75;5023528;28;19921;-68
2021/11/12 23:04:13;;;;;;;;;;;;;;;9.02;100.00;98631.72;5005144;28;19921;-68
2021/11/12 23:06:41;;;;;;;;;;;;;;;8.85;100.00;98637.38;5022649;28;19917;-68
2021/11/12 23:09:06;;;;;;;;;;;;;;;9.20;100.00;98624.25;5022251;28;19963;-68
2021/11/12 23:11:32;;;;;;;;;;;;;;;9.08;100.00;98628.97;5022417;28;19983;-68
2021/11/12 23:14:00;;;;;;;;;;;;;;;9.15;100.00;98621.00;5005853;28;19921;-68
2021/11/12 23:16:25;;;;;;;;;;;;;;;9.07;100.00;98615.28;5022156;28;19924;-68
2021/11/12 23:18:51;;;;;;;;;;;;;;;9.31;100.00;98611.06;5020673;28;19925;-68
2021/11/12 23:21:17;;;;;;;;;;;;;;;9.21;100.00;98604.53;4999675;28;19917;-68
2021/11/12 23:23:46;;;;;;;;;;;;;;;9.06;100.00;98608.47;5023173;28;19963;-67
2021/11/12 23:26:12;;;;;;;;;;;;;;;8.87;100.00;98610.78;5021676;28;20749;-68
2021/11/12 23:28:37;;;;;;;;;;;;;;;9.05;100.00;98608.50;5020942;28;19921;-68
2021/11/12 23:31:03;;;;;;;;;;;;;;;9.32;100.00;98605.03;5002431;28;19928;-68
2021/11/12 23:33:31;;;;;;;;;;;;;;;9.27;100.00;98600.94;5020430;28;19967;-68
2021/11/12 23:35:57;;;;;;;;;;;;;;;9.35;100.00;98599.81;5001230;28;19921;-68
2021/11/12 23:38:25;;;;;;;;;;;;;;;8.86;100.00;98592.84;5020148;28;20371;-68
2021/11/12 23:40:51;;;;;;;;;;;;;;;9.07;100.00;98589.59;5019907;28;19924;-68
2021/11/12 23:43:16;;;;;;;;;;;;;;;8.50;100.00;98591.34;5021330;28;19922;-68
2021/11/12 23:45:42;;;;;;;;;;;;;;;8.61;100.00;98591.03;5004325;28;20380;-68
2021/11/12 23:48:07;;;;;;;;;;;;;;;8.63;100.00;98591.00;4999775;28;20284;-68
2021/11/12 23:50:33;;;;;;;;;;;;;;;8.56;100.00;98580.09;5011146;28;20036;-68
2021/11/12 23:52:59;;;;;;;;;;;;;;;8.57;100.00;98586.88;4999271;28;19971;-68
2021/11/12 23:55:24;;;;;;;;;;;;;;;8.66;100.00;98580.63;5014436;28;19917;-68
2021/11/12 23:57:50;;;;;;;;;;;;;;;8.59;100.00;98579.97;5018255;28;19932;-68
